Wetterdaten: Juni 2023
Datum Temp Feuchte Luftdruck Regen Wind W.Richtung SonenZeit UV-Index Solar Windben
01.06.2023 12,1 C 74 % 1018,8 hPa 0,0 l/m 3,8 km/h W-NW 2,25 h 1,8 UV-I 237 W/m 8,4 km/h
02.06.2023 13,4 C 64 % 1019,6 hPa 0,0 l/m 4,3 km/h N-NW 4,58 h 2,3 UV-I 322 W/m 8,4 km/h
03.06.2023 14,7 C 43 % 1020,2 hPa 0,0 l/m 6,4 km/h O-NO 13,83 h 3,0 UV-I 487 W/m 14,1 km/h
04.06.2023 16,4 C 49 % 1019,9 hPa 0,0 l/m 1,5 km/h O-NO 13,75 h 2,8 UV-I 475 W/m 2,8 km/h
05.06.2023 18,3 C 53 % 1018,2 hPa 0,0 l/m 1,7 km/h O-NO 13,00 h 2,5 UV-I 452 W/m 3,2 km/h
06.06.2023 18,1 C 63 % 1017,7 hPa 0,0 l/m 0,1 km/h O-NO 5,83 h 1,6 UV-I 310 W/m 0,8 km/h
07.06.2023 17,4 C 70 % 1017,1 hPa 0,6 l/m 1,4 km/h O-NO 5,33 h 1,6 UV-I 270 W/m 5,6 km/h
08.06.2023 19,2 C 68 % 1014,6 hPa 1,8 l/m 3,6 km/h O-NO 10,17 h 2,5 UV-I 418 W/m 9,3 km/h
09.06.2023 21,4 C 57 % 1013,6 hPa 0,0 l/m 3,5 km/h NO 9,42 h 2,5 UV-I 376 W/m 9,3 km/h
10.06.2023 19,5 C 68 % 1014,6 hPa 7,2 l/m 3,2 km/h NO 11,75 h 3,0 UV-I 430 W/m 8,8 km/h
11.06.2023 22,1 C 49 % 1015,8 hPa 0,0 l/m 4,3 km/h O-NO 12,83 h 3,0 UV-I 459 W/m 10,4 km/h
12.06.2023 21,5 C 45 % 1014,9 hPa 0,0 l/m 2,6 km/h O 13,58 h 3,0 UV-I 472 W/m 7,6 km/h
13.06.2023 20,3 C 47 % 1012,9 hPa 0,0 l/m 2,6 km/h O-NO 12,33 h 2,7 UV-I 447 W/m 10,1 km/h
14.06.2023 18,1 C 55 % 1016,4 hPa 0,0 l/m 3,7 km/h O-NO 11,08 h 2,6 UV-I 426 W/m 9,7 km/h
15.06.2023 18,4 C 54 % 1017,3 hPa 0,0 l/m 1,5 km/h NW 10,42 h 2,5 UV-I 425 W/m 3,6 km/h
16.06.2023 19,1 C 60 % 1015,1 hPa 0,0 l/m 3,8 km/h W-NW 7,33 h 2,9 UV-I 357 W/m 6,8 km/h
17.06.2023 20,4 C 59 % 1013,0 hPa 0,0 l/m 1,8 km/h W 12,42 h 3,1 UV-I 455 W/m 4,8 km/h
18.06.2023 22,7 C 53 % 1011,0 hPa 0,0 l/m 2,4 km/h O 11,17 h 3,1 UV-I 432 W/m 5,6 km/h
19.06.2023 23,1 C 59 % 1010,7 hPa 0,0 l/m 1,4 km/h W 10,33 h 2,4 UV-I 390 W/m 2,8 km/h
20.06.2023 23,9 C 66 % 1009,5 hPa 2,8 l/m 1,8 km/h S-SO 5,50 h 2,5 UV-I 309 W/m 6,4 km/h
21.06.2023 21,8 C 77 % 1015,3 hPa 2,2 l/m 2,5 km/h SW 6,33 h 2,7 UV-I 302 W/m 4,8 km/h
22.06.2023 19,8 C 84 % 1012,3 hPa 24,8 l/m 0,5 km/h O-NO 2,75 h 3,4 UV-I 201 W/m 4,8 km/h
23.06.2023 17,3 C 77 % 1019,6 hPa 38,4 l/m 8,1 km/h NW 2,83 h 1,7 UV-I 169 W/m 15,3 km/h
24.06.2023 21,6 C 66 % 1021,8 hPa 0,0 l/m 1,4 km/h W-NW 13,00 h 3,5 UV-I 456 W/m 2,4 km/h
25.06.2023 24,5 C 62 % 1015,5 hPa 0,0 l/m 1,7 km/h O-SO 13,17 h 3,7 UV-I 456 W/m 4,4 km/h
26.06.2023 20,1 C 61 % 1014,1 hPa 0,0 l/m 6,2 km/h W 7,25 h 2,2 UV-I 294 W/m 12,5 km/h
27.06.2023 17,2 C 62 % 1016,8 hPa 0,0 l/m 5,9 km/h W-NW 5,83 h 2,2 UV-I 290 W/m 12,1 km/h
28.06.2023 17,7 C 69 % 1016,8 hPa 0,0 l/m 3,2 km/h W-SW 5,67 h 2,7 UV-I 331 W/m 8,0 km/h
29.06.2023 19,1 C 79 % 1012,2 hPa 0,8 l/m 0,2 km/h SW 0,58 h 1,5 UV-I 145 W/m 1,2 km/h
30.06.2023 17,4 C 67 % 1010,3 hPa 4,4 l/m 3,5 km/h W-NW 5,92 h 3,0 UV-I 309 W/m 6,4 km/h
Min-Datum 03.06.23 18.06.23 23.06.23 9 Tage 01.06.23 - - - - 01.06.23
Min-Zeit 05:40 14:00 01:35 - 00:20 - - - - 00:40
Minimum 3,9 C 29 % 1007,8 hPa - 0,0 km/h - - - - 0,0 km/h
Max-Datum 25.06.23 22.06.23 24.06.23 23.06.23 23.06.23 - 03.06.23 25.06.23 16.06.23 23.06.23
Max-Zeit 16:25 20:00 08:15 03:50 08:10 - 20:05 14:00 13:20 08:10
Maximum 31,4 C 92 % 1024,1 hPa 38,4 l/m 19,4 km/h
NW
- 13,75 h 6,4 UV-I 1195 W/m 43,5 km/h
NW
Durchschnitt 19,2 C 62 % 1015,5 hPa #83,0 l/m 2,9 km/h O-NO #260:15 h 2,6 UV-I 363 W/m 7,0 km/h

Durchschnitt Minimum Temp.11,0 C
Durchschnitt Maximum Temp.25,0 C